createdAt,value
2019-06-10T00:00:16.251Z,0.00
2019-06-10T00:01:12.125Z,0.00
2019-06-10T00:02:12.012Z,0.00
2019-06-10T00:03:12.071Z,0.00
2019-06-10T00:04:12.573Z,0.00
2019-06-10T00:05:11.971Z,0.00
2019-06-10T00:06:11.954Z,0.00
2019-06-10T00:07:12.046Z,0.00
2019-06-10T00:08:12.345Z,0.00
2019-06-10T00:09:12.064Z,0.00
2019-06-10T00:10:11.910Z,0.00
2019-06-10T00:11:11.902Z,0.00
2019-06-10T00:12:12.763Z,0.00
2019-06-10T00:13:12.241Z,0.00
2019-06-10T00:14:11.867Z,0.00
2019-06-10T00:15:11.874Z,0.00
2019-06-10T00:16:11.845Z,0.00
2019-06-10T00:17:11.838Z,0.00
2019-06-10T00:18:34.044Z,0.00
2019-06-10T00:19:12.940Z,0.00
2019-06-10T00:20:11.804Z,0.00
2019-06-10T00:21:11.794Z,0.00
2019-06-10T00:22:11.972Z,0.00
2019-06-10T00:23:12.564Z,0.00
2019-06-10T00:24:11.917Z,0.00
2019-06-10T00:25:12.104Z,0.00
2019-06-10T00:26:12.465Z,0.00
2019-06-10T00:27:12.116Z,0.00
2019-06-10T00:28:12.343Z,0.00
2019-06-10T00:29:12.091Z,0.00
2019-06-10T00:30:12.234Z,0.00
2019-06-10T00:31:11.683Z,0.00
2019-06-10T00:32:13.136Z,0.00
2019-06-10T00:33:12.477Z,0.00
2019-06-10T00:34:12.449Z,0.00
2019-06-10T00:35:12.308Z,0.00
2019-06-10T00:36:13.687Z,0.00
2019-06-10T00:37:14.512Z,0.00
2019-06-10T00:38:14.407Z,0.00
2019-06-10T00:39:13.551Z,0.00
2019-06-10T00:40:14.195Z,0.00
2019-06-10T00:41:13.869Z,0.00
2019-06-10T00:42:14.899Z,0.00
2019-06-10T00:43:13.488Z,0.00
2019-06-10T00:44:12.807Z,0.00
2019-06-10T00:45:17.678Z,0.00
2019-06-10T00:46:13.339Z,0.00
2019-06-10T00:47:14.426Z,0.00
2019-06-10T00:48:24.090Z,0.00
2019-06-10T00:49:14.588Z,0.00
2019-06-10T00:50:14.536Z,0.00
2019-06-10T00:51:13.096Z,0.00
2019-06-10T00:52:13.812Z,0.00
2019-06-10T00:53:14.194Z,0.00
2019-06-10T00:54:15.079Z,0.00
2019-06-10T00:55:12.557Z,0.00
2019-06-10T00:56:14.214Z,0.00
2019-06-10T00:57:12.397Z,0.00
2019-06-10T00:58:13.910Z,0.00
2019-06-10T00:59:14.801Z,0.00
2019-06-10T01:00:19.290Z,0.00
2019-06-10T01:01:14.456Z,0.00
2019-06-10T01:02:14.035Z,0.00
2019-06-10T01:03:14.914Z,0.00
2019-06-10T01:04:14.414Z,0.00
2019-06-10T01:05:12.470Z,0.00
2019-06-10T01:06:14.639Z,0.00
2019-06-10T01:07:14.445Z,0.00
2019-06-10T01:08:13.887Z,0.00
2019-06-10T01:09:13.213Z,0.00
2019-06-10T01:10:12.808Z,0.00
2019-06-10T01:11:20.349Z,0.00
2019-06-10T01:12:14.730Z,0.00
2019-06-10T01:13:12.273Z,0.00
2019-06-10T01:14:12.569Z,0.00
2019-06-10T01:15:12.558Z,0.00
2019-06-10T01:16:12.564Z,0.00
2019-06-10T01:17:13.776Z,0.00
2019-06-10T01:18:29.741Z,0.00
2019-06-10T01:19:12.847Z,0.00
2019-06-10T01:20:14.400Z,0.00
2019-06-10T01:21:13.756Z,0.00
2019-06-10T01:22:13.582Z,0.00
2019-06-10T01:23:13.897Z,0.00
2019-06-10T01:24:12.965Z,0.00
2019-06-10T01:25:12.394Z,0.00
2019-06-10T01:26:14.130Z,0.00
2019-06-10T01:27:13.866Z,0.00
2019-06-10T01:28:13.284Z,0.00
2019-06-10T01:29:13.642Z,0.00
2019-06-10T01:30:18.783Z,0.00
2019-06-10T01:31:16.796Z,0.00
2019-06-10T01:32:14.646Z,0.00
2019-06-10T01:33:12.848Z,0.00
2019-06-10T01:34:12.431Z,0.00
2019-06-10T01:35:11.615Z,0.00
2019-06-10T01:36:13.268Z,0.00
2019-06-10T01:37:14.345Z,0.00
2019-06-10T01:38:13.464Z,0.00
2019-06-10T01:39:13.540Z,0.00
2019-06-10T01:40:13.486Z,0.00
2019-06-10T01:41:13.795Z,0.00
2019-06-10T01:42:12.388Z,0.00
2019-06-10T01:43:13.274Z,0.00
2019-06-10T01:44:12.728Z,0.00
2019-06-10T01:45:11.523Z,0.00
2019-06-10T01:46:11.736Z,0.00
2019-06-10T01:47:11.832Z,0.00
2019-06-10T01:48:13.123Z,0.00
2019-06-10T01:49:12.028Z,0.00
2019-06-10T01:50:12.492Z,0.00
2019-06-10T01:51:11.883Z,0.00
2019-06-10T01:52:12.465Z,0.00
2019-06-10T01:53:14.025Z,0.00
2019-06-10T01:54:12.397Z,0.00
2019-06-10T01:55:13.506Z,0.00
2019-06-10T01:56:13.675Z,0.00
2019-06-10T01:57:13.397Z,0.00
2019-06-10T01:58:14.423Z,0.00
2019-06-10T01:59:13.753Z,0.00
2019-06-10T02:00:15.921Z,0.00
2019-06-10T02:01:13.940Z,0.00
2019-06-10T02:02:13.319Z,0.00
2019-06-10T02:03:13.303Z,0.00
2019-06-10T02:04:13.085Z,0.00
2019-06-10T02:05:12.686Z,0.00
2019-06-10T02:06:15.675Z,0.00
2019-06-10T02:07:13.902Z,0.00
2019-06-10T02:08:12.677Z,0.00
2019-06-10T02:09:13.474Z,0.00
2019-06-10T02:10:13.745Z,0.00
2019-06-10T02:11:14.060Z,0.00
2019-06-10T02:12:12.723Z,0.00
2019-06-10T02:13:12.128Z,0.00
2019-06-10T02:14:14.444Z,0.00
2019-06-10T02:15:12.562Z,0.00
2019-06-10T02:16:14.158Z,0.00
2019-06-10T02:17:13.157Z,0.00
2019-06-10T02:18:12.235Z,0.00
2019-06-10T02:19:12.932Z,0.00
2019-06-10T02:20:12.898Z,0.00
2019-06-10T02:21:14.286Z,0.00
2019-06-10T02:22:13.043Z,0.00
2019-06-10T02:23:12.342Z,0.00
2019-06-10T02:24:12.866Z,0.00
2019-06-10T02:25:11.073Z,0.00
2019-06-10T02:26:11.834Z,0.00
2019-06-10T02:27:12.870Z,0.00
2019-06-10T02:28:12.851Z,0.00
2019-06-10T02:29:12.488Z,0.00
2019-06-10T02:30:18.856Z,0.00
2019-06-10T02:31:14.147Z,0.00
2019-06-10T02:32:14.597Z,0.00
2019-06-10T02:33:12.911Z,0.00
2019-06-10T02:34:14.813Z,0.00
2019-06-10T02:35:18.055Z,0.00
2019-06-10T02:36:15.994Z,0.00
2019-06-10T02:37:16.749Z,0.00
2019-06-10T02:38:16.791Z,0.00
2019-06-10T02:39:16.646Z,0.00
2019-06-10T02:40:16.172Z,0.00
2019-06-10T02:41:17.010Z,0.00
2019-06-10T02:42:13.721Z,0.00
2019-06-10T02:43:16.058Z,0.00
2019-06-10T02:44:14.988Z,0.00
2019-06-10T02:45:15.175Z,0.00
2019-06-10T02:46:13.651Z,0.00
2019-06-10T02:47:10.182Z,0.00
2019-06-10T02:48:12.900Z,0.00
2019-06-10T02:49:28.430Z,0.00
2019-06-10T02:50:14.483Z,0.00
2019-06-10T02:51:14.741Z,0.00
2019-06-10T02:52:13.378Z,0.00
2019-06-10T02:53:12.874Z,5.62
2019-06-10T02:54:13.385Z,5.62
2019-06-10T02:55:14.029Z,5.62
2019-06-10T02:56:12.461Z,5.62
2019-06-10T02:57:10.087Z,11.25
2019-06-10T02:58:13.620Z,11.25
2019-06-10T02:59:13.073Z,11.25
2019-06-10T03:00:19.827Z,11.25
2019-06-10T03:01:14.670Z,11.25
2019-06-10T03:02:13.534Z,11.25
2019-06-10T03:03:13.467Z,11.25
2019-06-10T03:04:13.521Z,16.88
2019-06-10T03:05:09.981Z,16.88
2019-06-10T03:06:13.744Z,16.88
2019-06-10T03:07:10.004Z,16.88
2019-06-10T03:08:12.963Z,16.88
2019-06-10T03:09:09.950Z,16.88
2019-06-10T03:10:13.470Z,16.88
2019-06-10T03:11:09.925Z,16.88
2019-06-10T03:12:12.125Z,16.88
2019-06-10T03:13:12.555Z,22.50
2019-06-10T03:14:09.881Z,22.50
2019-06-10T03:15:09.870Z,22.50
2019-06-10T03:16:09.866Z,22.50
2019-06-10T03:17:09.855Z,16.88
2019-06-10T03:18:09.852Z,16.88
2019-06-10T03:19:09.832Z,11.25
2019-06-10T03:20:12.148Z,11.25
2019-06-10T03:21:12.235Z,11.25
2019-06-10T03:22:09.798Z,11.25
2019-06-10T03:23:11.944Z,11.25
2019-06-10T03:24:09.777Z,5.62
2019-06-10T03:25:09.784Z,5.62
2019-06-10T03:26:12.170Z,5.62
2019-06-10T03:27:09.741Z,5.62
2019-06-10T03:28:11.983Z,5.62
2019-06-10T03:29:09.724Z,5.62
2019-06-10T03:30:17.020Z,5.62
2019-06-10T03:31:15.022Z,11.25
2019-06-10T03:32:09.705Z,16.88
2019-06-10T03:33:13.559Z,16.88
2019-06-10T03:34:09.680Z,16.88
2019-06-10T03:35:12.982Z,16.88
2019-06-10T03:36:09.647Z,16.88
2019-06-10T03:37:09.629Z,22.50
2019-06-10T03:38:09.626Z,22.50
2019-06-10T03:39:09.640Z,22.50
2019-06-10T03:40:09.597Z,22.50
2019-06-10T03:41:09.591Z,22.50
2019-06-10T03:42:09.576Z,22.50
2019-06-10T03:43:11.841Z,22.50
2019-06-10T03:44:09.555Z,22.50
2019-06-10T03:45:09.556Z,22.50
2019-06-10T03:46:09.607Z,16.88
2019-06-10T03:47:09.520Z,11.25
2019-06-10T03:48:09.514Z,11.25
2019-06-10T03:49:09.506Z,16.88
2019-06-10T03:50:09.494Z,16.88
2019-06-10T03:51:09.485Z,16.88
2019-06-10T03:52:09.506Z,16.88
2019-06-10T03:53:09.462Z,11.25
2019-06-10T03:54:09.451Z,11.25
2019-06-10T03:55:09.436Z,5.62
2019-06-10T03:56:09.422Z,5.62
2019-06-10T03:57:09.418Z,11.25
2019-06-10T03:58:09.410Z,11.25
2019-06-10T03:59:09.388Z,16.88
2019-06-10T04:00:11.349Z,22.50
2019-06-10T04:01:09.373Z,22.50
2019-06-10T04:02:09.358Z,22.50
2019-06-10T04:03:09.358Z,28.12
2019-06-10T04:04:09.334Z,33.75
2019-06-10T04:05:09.321Z,39.38
2019-06-10T04:06:09.317Z,50.62
2019-06-10T04:07:09.301Z,56.25
2019-06-10T04:08:09.304Z,61.88
2019-06-10T04:09:09.275Z,73.12
2019-06-10T04:10:09.265Z,84.38
2019-06-10T04:11:09.259Z,84.38
2019-06-10T04:12:09.247Z,84.38
2019-06-10T04:13:09.244Z,78.75
2019-06-10T04:14:09.243Z,78.75
2019-06-10T04:15:09.218Z,78.75
2019-06-10T04:16:09.204Z,78.75
2019-06-10T04:17:09.192Z,78.75
2019-06-10T04:18:09.223Z,78.75
2019-06-10T04:19:09.171Z,73.12
2019-06-10T04:20:12.353Z,73.12
2019-06-10T04:21:12.601Z,73.12
2019-06-10T04:22:09.137Z,78.75
2019-06-10T04:23:09.119Z,84.38
2019-06-10T04:24:09.229Z,84.38
2019-06-10T04:25:09.104Z,78.75
2019-06-10T04:26:09.093Z,78.75
2019-06-10T04:27:09.080Z,84.38
2019-06-10T04:28:09.063Z,84.38
2019-06-10T04:29:09.060Z,78.75
2019-06-10T04:30:09.045Z,73.12
2019-06-10T04:31:09.037Z,73.12
2019-06-10T04:32:09.030Z,67.50
2019-06-10T04:33:09.008Z,67.50
2019-06-10T04:34:09.000Z,67.50
2019-06-10T04:35:08.990Z,67.50
2019-06-10T04:36:08.977Z,73.12
2019-06-10T04:37:08.972Z,84.38
2019-06-10T04:38:08.952Z,95.62
2019-06-10T04:39:08.958Z,106.88
2019-06-10T04:40:08.933Z,106.88
2019-06-10T04:41:08.936Z,101.25
2019-06-10T04:42:08.914Z,101.25
2019-06-10T04:43:08.901Z,106.88
2019-06-10T04:44:08.884Z,106.88
2019-06-10T04:45:08.888Z,101.25
2019-06-10T04:46:08.879Z,95.62
2019-06-10T04:47:08.856Z,95.62
2019-06-10T04:48:08.844Z,90.00
2019-06-10T04:49:08.828Z,78.75
2019-06-10T04:50:20.922Z,73.12
2019-06-10T04:51:09.857Z,67.50
2019-06-10T04:52:08.796Z,67.50
2019-06-10T04:53:08.784Z,61.88
2019-06-10T04:54:08.771Z,67.50
2019-06-10T04:55:08.762Z,73.12
2019-06-10T04:56:08.756Z,84.38
2019-06-10T04:57:08.752Z,90.00
2019-06-10T04:58:08.734Z,95.62
2019-06-10T04:59:08.722Z,95.62
2019-06-10T05:00:13.904Z,101.25
2019-06-10T05:01:12.013Z,112.50
2019-06-10T05:02:08.700Z,118.12
2019-06-10T05:03:08.673Z,118.12
2019-06-10T05:04:08.673Z,112.50
2019-06-10T05:05:08.658Z,112.50
2019-06-10T05:06:08.642Z,118.12
2019-06-10T05:07:08.631Z,118.12
2019-06-10T05:08:08.637Z,123.75
2019-06-10T05:09:08.610Z,129.38
2019-06-10T05:10:08.600Z,135.00
2019-06-10T05:11:08.587Z,140.62
2019-06-10T05:12:08.579Z,151.88
2019-06-10T05:13:08.568Z,163.12
2019-06-10T05:14:08.547Z,168.75
2019-06-10T05:15:08.542Z,180.00
2019-06-10T05:16:08.525Z,191.25
2019-06-10T05:17:08.530Z,208.12
2019-06-10T05:18:08.502Z,219.38
2019-06-10T05:19:08.501Z,241.88
2019-06-10T05:20:08.484Z,270.00
2019-06-10T05:21:08.480Z,286.88
2019-06-10T05:22:08.477Z,298.12
2019-06-10T05:23:08.452Z,309.38
2019-06-10T05:24:08.441Z,326.25
2019-06-10T05:25:08.438Z,343.12
2019-06-10T05:26:08.424Z,360.00
2019-06-10T05:27:08.409Z,365.62
2019-06-10T05:28:08.397Z,376.88
2019-06-10T05:29:08.381Z,382.50
2019-06-10T05:30:08.385Z,393.75
2019-06-10T05:31:08.369Z,405.00
2019-06-10T05:32:08.357Z,416.25
2019-06-10T05:33:08.349Z,427.50
2019-06-10T05:34:08.326Z,427.50
2019-06-10T05:35:08.356Z,410.62
2019-06-10T05:36:08.308Z,388.12
2019-06-10T05:37:08.297Z,371.25
2019-06-10T05:38:08.285Z,360.00
2019-06-10T05:39:08.293Z,354.38
2019-06-10T05:40:08.264Z,343.12
2019-06-10T05:41:08.261Z,331.88
2019-06-10T05:42:08.238Z,315.00
2019-06-10T05:43:08.266Z,303.75
2019-06-10T05:44:08.230Z,292.50
2019-06-10T05:45:08.209Z,292.50
2019-06-10T05:46:08.238Z,303.75
2019-06-10T05:47:08.181Z,326.25
2019-06-10T05:48:08.205Z,354.38
2019-06-10T05:49:08.191Z,371.25
2019-06-10T05:50:08.150Z,365.62
2019-06-10T05:51:08.138Z,354.38
2019-06-10T05:52:08.178Z,331.88
2019-06-10T05:53:08.117Z,331.88
2019-06-10T05:54:08.111Z,331.88
2019-06-10T05:55:08.098Z,315.00
2019-06-10T05:56:08.096Z,309.38
2019-06-10T05:57:08.078Z,309.38
2019-06-10T05:58:08.074Z,326.25
2019-06-10T05:59:08.050Z,348.75
2019-06-10T06:00:13.927Z,399.38
2019-06-10T06:01:09.031Z,433.12
2019-06-10T06:02:08.051Z,461.25
2019-06-10T06:03:08.010Z,500.62
2019-06-10T06:04:07.998Z,540.00
2019-06-10T06:05:07.988Z,551.25
2019-06-10T06:06:07.978Z,551.25
2019-06-10T06:07:07.978Z,528.75
2019-06-10T06:08:09.029Z,478.12
2019-06-10T06:09:07.952Z,444.38
2019-06-10T06:10:07.941Z,438.75
2019-06-10T06:11:07.923Z,461.25
2019-06-10T06:12:11.097Z,506.25
2019-06-10T06:13:08.927Z,568.12
2019-06-10T06:14:07.884Z,630.00
2019-06-10T06:15:07.895Z,669.38
2019-06-10T06:16:07.865Z,691.88
2019-06-10T06:17:07.870Z,725.62
2019-06-10T06:18:10.612Z,714.38
2019-06-10T06:19:08.844Z,720.00
2019-06-10T06:20:07.822Z,703.12
2019-06-10T06:21:22.627Z,714.38
2019-06-10T06:22:08.807Z,703.12
2019-06-10T06:23:09.083Z,720.00
2019-06-10T06:24:07.805Z,770.62
2019-06-10T06:25:07.817Z,798.75
2019-06-10T06:26:07.756Z,855.00
2019-06-10T06:27:07.776Z,843.75
2019-06-10T06:28:07.730Z,855.00
2019-06-10T06:29:07.725Z,860.62
2019-06-10T06:30:14.750Z,888.75
2019-06-10T06:31:08.703Z,888.75
2019-06-10T06:32:07.693Z,883.12
2019-06-10T06:33:07.696Z,883.12
2019-06-10T06:34:07.669Z,883.12
2019-06-10T06:35:07.662Z,871.88
2019-06-10T06:36:07.652Z,933.75
2019-06-10T06:37:07.641Z,1001.25
2019-06-10T06:38:07.636Z,1068.75
2019-06-10T06:39:07.614Z,1113.75
2019-06-10T06:40:07.598Z,1147.50
2019-06-10T06:41:07.600Z,1158.75
2019-06-10T06:42:07.583Z,1158.75
2019-06-10T06:43:07.574Z,1136.25
2019-06-10T06:44:07.557Z,1108.12
2019-06-10T06:45:07.587Z,1063.12
2019-06-10T06:46:07.538Z,1018.12
2019-06-10T06:47:07.529Z,1001.25
2019-06-10T06:48:07.512Z,933.75
2019-06-10T06:49:07.507Z,950.62
2019-06-10T06:50:07.498Z,933.75
2019-06-10T06:51:08.574Z,916.88
2019-06-10T06:52:07.473Z,894.38
2019-06-10T06:53:21.112Z,866.25
2019-06-10T06:54:08.445Z,826.88
2019-06-10T06:55:07.447Z,798.75
2019-06-10T06:56:07.448Z,770.62
2019-06-10T06:57:07.451Z,770.62
2019-06-10T06:58:07.405Z,781.88
2019-06-10T06:59:07.396Z,849.38
2019-06-10T07:00:34.075Z,855.00
2019-06-10T07:01:10.875Z,866.25
2019-06-10T07:02:08.381Z,843.75
2019-06-10T07:03:07.369Z,781.88
2019-06-10T07:04:07.338Z,725.62
2019-06-10T07:05:07.330Z,697.50
2019-06-10T07:06:07.319Z,691.88
2019-06-10T07:07:07.318Z,703.12
2019-06-10T07:08:07.302Z,725.62
2019-06-10T07:09:08.274Z,765.00
2019-06-10T07:10:07.272Z,776.25
2019-06-10T07:11:07.263Z,776.25
2019-06-10T07:12:07.253Z,804.38
2019-06-10T07:13:07.253Z,849.38
2019-06-10T07:14:10.063Z,849.38
2019-06-10T07:15:07.239Z,826.88
2019-06-10T07:16:07.207Z,798.75
2019-06-10T07:17:07.201Z,725.62
2019-06-10T07:18:07.185Z,703.12
2019-06-10T07:19:07.212Z,686.25
2019-06-10T07:20:07.170Z,708.75
2019-06-10T07:21:07.156Z,736.88
2019-06-10T07:22:12.433Z,731.25
2019-06-10T07:23:08.156Z,770.62
2019-06-10T07:24:07.134Z,810.00
2019-06-10T07:25:07.121Z,888.75
2019-06-10T07:26:07.106Z,956.25
2019-06-10T07:27:07.085Z,1012.50
2019-06-10T07:28:07.083Z,1046.25
2019-06-10T07:29:07.069Z,1051.88
2019-06-10T07:30:11.780Z,1085.62
2019-06-10T07:31:20.769Z,1063.12
2019-06-10T07:32:08.032Z,1068.75
2019-06-10T07:33:07.030Z,1080.00
2019-06-10T07:34:07.011Z,1057.50
2019-06-10T07:35:07.008Z,1035.00
2019-06-10T07:36:06.997Z,1029.38
2019-06-10T07:37:06.986Z,1001.25
2019-06-10T07:38:06.982Z,984.38
2019-06-10T07:39:06.964Z,967.50
2019-06-10T07:40:06.945Z,956.25
2019-06-10T07:41:06.942Z,945.00
2019-06-10T07:42:06.943Z,928.12
2019-06-10T07:43:06.925Z,911.25
2019-06-10T07:44:06.908Z,900.00
2019-06-10T07:45:06.906Z,894.38
2019-06-10T07:46:06.885Z,894.38
2019-06-10T07:47:06.869Z,888.75
2019-06-10T07:48:06.867Z,894.38
2019-06-10T07:49:06.849Z,900.00
2019-06-10T07:50:06.851Z,945.00
2019-06-10T07:51:06.831Z,939.38
2019-06-10T07:52:15.160Z,950.62
2019-06-10T07:53:07.838Z,967.50
2019-06-10T07:54:06.790Z,967.50
2019-06-10T07:55:06.779Z,967.50
2019-06-10T07:56:06.767Z,967.50
2019-06-10T07:57:06.759Z,984.38
2019-06-10T07:58:06.749Z,978.75
2019-06-10T07:59:06.747Z,973.12
2019-06-10T08:00:06.728Z,961.88
2019-06-10T08:01:06.711Z,933.75
2019-06-10T08:02:06.701Z,905.62
2019-06-10T08:03:06.694Z,877.50
2019-06-10T08:04:06.691Z,843.75
2019-06-10T08:05:06.672Z,826.88
2019-06-10T08:06:06.658Z,838.12
2019-06-10T08:07:06.650Z,860.62
2019-06-10T08:08:06.640Z,877.50
2019-06-10T08:09:06.643Z,900.00
2019-06-10T08:10:06.615Z,928.12
2019-06-10T08:11:06.602Z,950.62
2019-06-10T08:12:06.590Z,967.50
2019-06-10T08:13:06.586Z,984.38
2019-06-10T08:14:06.570Z,1001.25
2019-06-10T08:15:06.569Z,1018.12
2019-06-10T08:16:06.543Z,1046.25
2019-06-10T08:17:06.549Z,1068.75
2019-06-10T08:18:06.525Z,1091.25
2019-06-10T08:19:31.531Z,1102.50
2019-06-10T08:20:09.920Z,1130.62
2019-06-10T08:21:06.504Z,1164.38
2019-06-10T08:22:06.487Z,1164.38
2019-06-10T08:23:06.480Z,1158.75
2019-06-10T08:24:06.457Z,1147.50
2019-06-10T08:25:06.487Z,1153.12
2019-06-10T08:26:06.435Z,1147.50
2019-06-10T08:27:06.427Z,1164.38
2019-06-10T08:28:06.466Z,1192.50
2019-06-10T08:29:06.400Z,1203.75
2019-06-10T08:30:18.557Z,1209.38
2019-06-10T08:31:07.392Z,1220.62
2019-06-10T08:32:06.373Z,1237.50
2019-06-10T08:33:06.358Z,1243.12
2019-06-10T08:34:06.351Z,1243.12
2019-06-10T08:35:06.344Z,1226.25
2019-06-10T08:36:06.365Z,1186.88
2019-06-10T08:37:06.314Z,1158.75
2019-06-10T08:38:06.305Z,1125.00
2019-06-10T08:39:06.294Z,1091.25
2019-06-10T08:40:06.283Z,1063.12
2019-06-10T08:41:06.307Z,1051.88
2019-06-10T08:42:06.267Z,1063.12
2019-06-10T08:43:06.256Z,1074.38
2019-06-10T08:44:06.244Z,1080.00
2019-06-10T08:45:06.228Z,1085.62
2019-06-10T08:46:06.221Z,1096.88
2019-06-10T08:47:06.246Z,1096.88
2019-06-10T08:48:06.198Z,1096.88
2019-06-10T08:49:06.205Z,1113.75
2019-06-10T08:50:06.173Z,1147.50
2019-06-10T08:51:06.168Z,1198.12
2019-06-10T08:52:06.159Z,1254.38
2019-06-10T08:53:14.373Z,1265.62
2019-06-10T08:54:07.133Z,1260.00
2019-06-10T08:55:06.122Z,1237.50
2019-06-10T08:56:06.112Z,1243.12
2019-06-10T08:57:06.108Z,1220.62
2019-06-10T08:58:06.093Z,1243.12
2019-06-10T08:59:06.095Z,1271.25
2019-06-10T09:00:11.818Z,1310.62
2019-06-10T09:01:07.057Z,1338.75
2019-06-10T09:02:06.058Z,1361.25
2019-06-10T09:03:06.049Z,1400.62
2019-06-10T09:04:06.810Z,1434.38
2019-06-10T09:05:06.015Z,1468.12
2019-06-10T09:06:06.007Z,1473.75
2019-06-10T09:07:05.996Z,1451.25
2019-06-10T09:08:05.998Z,1456.88
2019-06-10T09:09:05.983Z,1423.12
2019-06-10T09:10:05.966Z,1406.25
2019-06-10T09:11:05.955Z,1400.62
2019-06-10T09:12:05.946Z,1417.50
2019-06-10T09:13:05.936Z,1411.88
2019-06-10T09:14:05.933Z,1395.00
2019-06-10T09:15:05.924Z,1378.12
2019-06-10T09:16:15.617Z,1344.38
2019-06-10T09:17:06.890Z,1350.00
2019-06-10T09:18:05.880Z,1361.25
2019-06-10T09:19:05.873Z,1400.62
2019-06-10T09:20:05.874Z,1395.00
2019-06-10T09:21:05.845Z,1434.38
2019-06-10T09:22:05.832Z,1479.38
2019-06-10T09:23:18.353Z,1513.12
2019-06-10T09:24:06.811Z,1473.75
2019-06-10T09:25:05.808Z,1406.25
2019-06-10T09:26:05.814Z,1400.62
2019-06-10T09:27:05.774Z,1417.50
2019-06-10T09:28:05.762Z,1440.00
2019-06-10T09:29:05.852Z,1451.25
2019-06-10T09:30:06.137Z,1462.50
2019-06-10T09:31:05.734Z,1473.75
2019-06-10T09:32:05.729Z,1473.75
2019-06-10T09:33:05.713Z,1485.00
2019-06-10T09:34:05.710Z,1501.88
2019-06-10T09:35:05.703Z,1473.75
2019-06-10T09:36:05.681Z,1451.25
2019-06-10T09:37:05.672Z,1417.50
2019-06-10T09:38:05.694Z,1445.62
2019-06-10T09:39:05.662Z,1513.12
2019-06-10T09:40:05.635Z,1490.62
2019-06-10T09:41:06.328Z,1496.25
2019-06-10T09:42:06.736Z,1473.75
2019-06-10T09:43:05.611Z,1462.50
2019-06-10T09:44:05.603Z,1417.50
2019-06-10T09:45:05.587Z,1316.25
2019-06-10T09:46:05.575Z,1226.25
2019-06-10T09:47:05.576Z,1141.88
2019-06-10T09:48:05.572Z,1085.62
2019-06-10T09:49:05.570Z,1029.38
2019-06-10T09:50:05.540Z,984.38
2019-06-10T09:51:05.521Z,945.00
2019-06-10T09:52:05.524Z,922.50
2019-06-10T09:53:05.499Z,911.25
2019-06-10T09:54:06.715Z,905.62
2019-06-10T09:55:05.491Z,900.00
2019-06-10T09:56:05.467Z,883.12
2019-06-10T09:57:05.454Z,871.88
2019-06-10T09:58:05.447Z,866.25
2019-06-10T09:59:05.431Z,877.50
2019-06-10T10:00:05.442Z,900.00
2019-06-10T10:01:05.420Z,939.38
2019-06-10T10:02:07.035Z,1018.12
2019-06-10T10:03:05.394Z,1102.50
2019-06-10T10:04:05.391Z,1141.88
2019-06-10T10:05:05.372Z,1198.12
2019-06-10T10:06:15.597Z,1282.50
2019-06-10T10:07:06.345Z,1355.62
2019-06-10T10:08:05.396Z,1428.75
2019-06-10T10:09:05.336Z,1411.88
2019-06-10T10:10:05.557Z,1321.88
2019-06-10T10:11:05.334Z,1220.62
2019-06-10T10:12:05.554Z,1147.50
2019-06-10T10:13:05.286Z,1096.88
2019-06-10T10:14:09.005Z,1063.12
2019-06-10T10:15:22.589Z,1051.88
2019-06-10T10:16:06.622Z,1063.12
2019-06-10T10:17:05.239Z,1068.75
2019-06-10T10:18:05.238Z,1130.62
2019-06-10T10:19:05.590Z,1192.50
2019-06-10T10:20:05.205Z,1226.25
2019-06-10T10:21:05.255Z,1378.12
2019-06-10T10:22:05.191Z,1485.00
2019-06-10T10:23:05.170Z,1411.88
2019-06-10T10:24:10.187Z,1321.88
2019-06-10T10:25:06.150Z,1237.50
2019-06-10T10:26:05.142Z,1198.12
2019-06-10T10:27:09.106Z,1468.12
2019-06-10T10:28:05.129Z,2013.75
2019-06-10T10:29:05.177Z,1788.75
2019-06-10T10:30:05.100Z,1485.00
2019-06-10T10:31:05.100Z,1192.50
2019-06-10T10:32:05.080Z,1175.62
2019-06-10T10:33:05.067Z,1096.88
2019-06-10T10:34:05.058Z,1074.38
2019-06-10T10:35:05.039Z,1068.75
2019-06-10T10:36:05.035Z,1085.62
2019-06-10T10:37:05.035Z,1091.25
2019-06-10T10:38:05.023Z,1119.38
2019-06-10T10:39:05.094Z,1164.38
2019-06-10T10:40:05.059Z,1226.25
2019-06-10T10:41:05.164Z,1305.00
2019-06-10T10:42:04.968Z,1485.00
2019-06-10T10:43:22.230Z,1462.50
2019-06-10T10:44:05.945Z,1625.62
2019-06-10T10:45:04.938Z,1957.50
2019-06-10T10:46:05.817Z,2199.38
2019-06-10T10:47:04.940Z,1923.75
2019-06-10T10:48:04.935Z,1991.25
2019-06-10T10:49:04.890Z,2525.62
2019-06-10T10:50:04.885Z,2778.75
2019-06-10T10:51:04.870Z,3341.25
2019-06-10T10:52:04.857Z,2891.25
2019-06-10T10:53:04.857Z,3009.38
2019-06-10T10:54:29.720Z,2368.12
2019-06-10T10:55:07.011Z,2137.50
2019-06-10T10:56:04.825Z,1946.25
2019-06-10T10:57:04.828Z,1980.00
2019-06-10T10:58:04.803Z,1991.25
2019-06-10T10:59:04.807Z,1800.00
2019-06-10T11:00:04.792Z,1743.75
2019-06-10T11:01:05.083Z,1766.25
2019-06-10T11:02:04.757Z,1518.75
2019-06-10T11:03:04.779Z,1355.62
2019-06-10T11:04:04.732Z,1276.88
2019-06-10T11:05:04.736Z,1299.38
2019-06-10T11:06:04.779Z,1299.38
2019-06-10T11:07:04.766Z,1265.62
2019-06-10T11:08:04.695Z,1248.75
2019-06-10T11:09:04.706Z,1209.38
2019-06-10T11:10:04.721Z,1203.75
2019-06-10T11:11:05.879Z,1175.62
2019-06-10T11:12:04.653Z,1158.75
2019-06-10T11:13:04.646Z,1147.50
2019-06-10T11:14:04.637Z,1130.62
2019-06-10T11:15:05.246Z,1119.38
2019-06-10T11:16:04.648Z,1102.50
2019-06-10T11:17:04.599Z,1096.88
2019-06-10T11:18:04.589Z,1096.88
2019-06-10T11:19:04.581Z,1085.62
2019-06-10T11:20:04.570Z,1068.75
2019-06-10T11:21:05.241Z,1074.38
2019-06-10T11:22:04.551Z,1096.88
2019-06-10T11:23:04.529Z,1125.00
2019-06-10T11:24:04.962Z,1158.75
2019-06-10T11:25:04.519Z,1203.75
2019-06-10T11:26:04.503Z,1243.12
2019-06-10T11:27:04.506Z,1276.88
2019-06-10T11:28:04.482Z,1288.12
2019-06-10T11:29:04.535Z,1282.50
2019-06-10T11:30:04.465Z,1265.62
2019-06-10T11:31:04.447Z,1288.12
2019-06-10T11:32:04.440Z,1316.25
2019-06-10T11:33:04.426Z,1321.88
2019-06-10T11:34:04.453Z,1389.38
2019-06-10T11:35:04.412Z,1451.25
2019-06-10T11:36:04.391Z,1462.50
2019-06-10T11:37:04.400Z,1501.88
2019-06-10T11:38:04.381Z,1518.75
2019-06-10T11:39:04.358Z,1524.38
2019-06-10T11:40:04.348Z,1451.25
2019-06-10T11:41:04.342Z,1338.75
2019-06-10T11:42:04.336Z,1260.00
2019-06-10T11:43:04.318Z,1192.50
2019-06-10T11:44:04.332Z,1181.25
2019-06-10T11:45:04.316Z,1125.00
2019-06-10T11:46:07.491Z,1091.25
2019-06-10T11:47:04.276Z,1085.62
2019-06-10T11:48:04.282Z,1091.25
2019-06-10T11:49:04.251Z,1108.12
2019-06-10T11:50:04.246Z,1113.75
2019-06-10T11:51:04.893Z,1130.62
2019-06-10T11:52:04.224Z,1153.12
2019-06-10T11:53:04.400Z,1164.38
2019-06-10T11:54:04.213Z,1181.25
2019-06-10T11:55:14.860Z,1209.38
2019-06-10T11:56:05.180Z,1237.50
2019-06-10T11:57:04.175Z,1271.25
2019-06-10T11:58:04.154Z,1316.25
2019-06-10T11:59:09.368Z,1378.12
2019-06-10T12:00:13.641Z,1451.25
2019-06-10T12:01:05.180Z,1524.38
2019-06-10T12:02:06.056Z,1541.25
2019-06-10T12:03:04.116Z,1513.12
2019-06-10T12:04:04.319Z,1541.25
2019-06-10T12:05:04.175Z,1366.88
2019-06-10T12:06:05.436Z,1237.50
2019-06-10T12:07:04.067Z,1164.38
2019-06-10T12:08:04.055Z,1108.12
2019-06-10T12:09:04.062Z,1085.62
2019-06-10T12:10:04.045Z,1051.88
2019-06-10T12:11:04.026Z,1040.62
2019-06-10T12:12:04.011Z,1057.50
2019-06-10T12:13:07.102Z,1074.38
2019-06-10T12:14:04.768Z,1108.12
2019-06-10T12:15:03.972Z,1147.50
2019-06-10T12:16:51.441Z,1164.38
2019-06-10T12:17:21.603Z,1198.12
2019-06-10T12:18:08.347Z,1220.62
2019-06-10T12:19:03.940Z,1243.12
2019-06-10T12:20:03.946Z,1237.50
2019-06-10T12:21:04.102Z,1243.12
2019-06-10T12:22:07.425Z,1243.12
2019-06-10T12:23:04.566Z,1248.75
2019-06-10T12:24:03.881Z,1231.88
2019-06-10T12:25:26.723Z,1237.50
2019-06-10T12:26:05.372Z,1209.38
2019-06-10T12:27:05.018Z,1125.00
2019-06-10T12:28:07.313Z,1074.38
2019-06-10T12:29:05.573Z,1040.62
2019-06-10T12:30:05.009Z,1023.75
2019-06-10T12:31:06.860Z,1029.38
2019-06-10T12:32:07.103Z,1057.50
2019-06-10T12:33:05.573Z,1085.62
2019-06-10T12:34:05.973Z,1108.12